sensor_id;sensor_type;location;lat;lon;timestamp;P1;durP1;ratioP1;P2;durP2;ratioP2
2610;SDS011;5612;51.134;17.058;2023-01-08T00:01:48;53.77;;;37.97;;
2610;SDS011;5612;51.134;17.058;2023-01-08T00:04:17;57.50;;;40.30;;
2610;SDS011;5612;51.134;17.058;2023-01-08T00:06:45;50.97;;;40.37;;
2610;SDS011;5612;51.134;17.058;2023-01-08T00:09:16;52.67;;;40.57;;
2610;SDS011;5612;51.134;17.058;2023-01-08T00:11:45;53.70;;;41.80;;
2610;SDS011;5612;51.134;17.058;2023-01-08T00:14:15;50.97;;;39.40;;
2610;SDS011;5612;51.134;17.058;2023-01-08T00:16:43;51.43;;;40.13;;
2610;SDS011;5612;51.134;17.058;2023-01-08T00:19:12;50.23;;;40.03;;
2610;SDS011;5612;51.134;17.058;2023-01-08T00:21:41;48.50;;;36.97;;
2610;SDS011;5612;51.134;17.058;2023-01-08T00:24:10;48.90;;;37.30;;
2610;SDS011;5612;51.134;17.058;2023-01-08T00:26:40;48.27;;;38.40;;
2610;SDS011;5612;51.134;17.058;2023-01-08T00:29:09;53.13;;;39.10;;
2610;SDS011;5612;51.134;17.058;2023-01-08T00:31:38;54.03;;;42.33;;
2610;SDS011;5612;51.134;17.058;2023-01-08T00:34:07;53.67;;;43.03;;
2610;SDS011;5612;51.134;17.058;2023-01-08T00:36:36;53.97;;;38.87;;
2610;SDS011;5612;51.134;17.058;2023-01-08T00:39:04;61.93;;;43.23;;
2610;SDS011;5612;51.134;17.058;2023-01-08T00:41:33;58.23;;;42.57;;
2610;SDS011;5612;51.134;17.058;2023-01-08T00:44:04;71.57;;;45.60;;
2610;SDS011;5612;51.134;17.058;2023-01-08T00:46:33;59.53;;;44.00;;
2610;SDS011;5612;51.134;17.058;2023-01-08T00:49:02;60.87;;;45.13;;
2610;SDS011;5612;51.134;17.058;2023-01-08T00:51:31;59.57;;;43.07;;
2610;SDS011;5612;51.134;17.058;2023-01-08T00:54:00;54.53;;;43.00;;
2610;SDS011;5612;51.134;17.058;2023-01-08T00:56:29;57.93;;;45.27;;
2610;SDS011;5612;51.134;17.058;2023-01-08T00:58:57;58.70;;;42.63;;
2610;SDS011;5612;51.134;17.058;2023-01-08T01:01:28;64.73;;;42.10;;
2610;SDS011;5612;51.134;17.058;2023-01-08T01:03:57;53.23;;;41.80;;
2610;SDS011;5612;51.134;17.058;2023-01-08T01:06:26;53.77;;;41.67;;
2610;SDS011;5612;51.134;17.058;2023-01-08T01:08:55;56.70;;;42.90;;
2610;SDS011;5612;51.134;17.058;2023-01-08T01:11:25;53.53;;;41.87;;
2610;SDS011;5612;51.134;17.058;2023-01-08T01:13:55;52.87;;;40.23;;
2610;SDS011;5612;51.134;17.058;2023-01-08T01:16:24;49.83;;;39.20;;
2610;SDS011;5612;51.134;17.058;2023-01-08T01:18:55;50.63;;;39.80;;
2610;SDS011;5612;51.134;17.058;2023-01-08T01:21:25;50.83;;;39.53;;
2610;SDS011;5612;51.134;17.058;2023-01-08T01:23:56;49.07;;;38.67;;
2610;SDS011;5612;51.134;17.058;2023-01-08T01:26:26;46.17;;;37.23;;
2610;SDS011;5612;51.134;17.058;2023-01-08T01:28:55;48.70;;;35.57;;
2610;SDS011;5612;51.134;17.058;2023-01-08T01:31:25;49.27;;;38.83;;
2610;SDS011;5612;51.134;17.058;2023-01-08T01:33:57;51.30;;;36.00;;
2610;SDS011;5612;51.134;17.058;2023-01-08T01:36:26;44.63;;;35.47;;
2610;SDS011;5612;51.134;17.058;2023-01-08T01:38:55;45.07;;;35.37;;
2610;SDS011;5612;51.134;17.058;2023-01-08T01:41:25;52.07;;;38.67;;
2610;SDS011;5612;51.134;17.058;2023-01-08T01:43:56;44.10;;;34.67;;
2610;SDS011;5612;51.134;17.058;2023-01-08T01:46:31;48.90;;;38.90;;
2610;SDS011;5612;51.134;17.058;2023-01-08T01:49:06;50.33;;;35.60;;
2610;SDS011;5612;51.134;17.058;2023-01-08T01:51:38;56.77;;;36.07;;
2610;SDS011;5612;51.134;17.058;2023-01-08T01:54:12;46.80;;;38.40;;
2610;SDS011;5612;51.134;17.058;2023-01-08T01:56:41;44.40;;;35.00;;
2610;SDS011;5612;51.134;17.058;2023-01-08T01:59:11;53.20;;;37.97;;
2610;SDS011;5612;51.134;17.058;2023-01-08T02:01:40;50.20;;;38.33;;
2610;SDS011;5612;51.134;17.058;2023-01-08T02:04:11;51.17;;;37.10;;
2610;SDS011;5612;51.134;17.058;2023-01-08T02:06:41;51.10;;;39.37;;
2610;SDS011;5612;51.134;17.058;2023-01-08T02:09:16;54.60;;;39.63;;
2610;SDS011;5612;51.134;17.058;2023-01-08T02:11:52;47.30;;;38.47;;
2610;SDS011;5612;51.134;17.058;2023-01-08T02:14:47;54.00;;;41.87;;
2610;SDS011;5612;51.134;17.058;2023-01-08T02:17:25;57.63;;;39.50;;
2610;SDS011;5612;51.134;17.058;2023-01-08T02:20:05;50.20;;;38.03;;
2610;SDS011;5612;51.134;17.058;2023-01-08T02:22:47;50.60;;;37.03;;
2610;SDS011;5612;51.134;17.058;2023-01-08T02:25:34;52.07;;;39.73;;
2610;SDS011;5612;51.134;17.058;2023-01-08T02:28:15;49.60;;;37.47;;
2610;SDS011;5612;51.134;17.058;2023-01-08T02:30:44;53.37;;;38.40;;
2610;SDS011;5612;51.134;17.058;2023-01-08T02:33:14;55.10;;;41.50;;
2610;SDS011;5612;51.134;17.058;2023-01-08T02:35:44;58.63;;;41.70;;
2610;SDS011;5612;51.134;17.058;2023-01-08T02:38:17;52.47;;;41.73;;
2610;SDS011;5612;51.134;17.058;2023-01-08T02:40:50;59.03;;;43.80;;
2610;SDS011;5612;51.134;17.058;2023-01-08T02:43:25;60.30;;;44.30;;
2610;SDS011;5612;51.134;17.058;2023-01-08T02:46:02;54.40;;;43.13;;
2610;SDS011;5612;51.134;17.058;2023-01-08T02:48:32;61.53;;;43.83;;
2610;SDS011;5612;51.134;17.058;2023-01-08T02:51:07;57.70;;;41.67;;
2610;SDS011;5612;51.134;17.058;2023-01-08T02:53:41;57.27;;;43.20;;
2610;SDS011;5612;51.134;17.058;2023-01-08T02:56:13;56.10;;;42.33;;
2610;SDS011;5612;51.134;17.058;2023-01-08T02:58:46;58.50;;;41.87;;
2610;SDS011;5612;51.134;17.058;2023-01-08T03:01:18;57.50;;;43.37;;
2610;SDS011;5612;51.134;17.058;2023-01-08T03:03:49;63.00;;;44.87;;
2610;SDS011;5612;51.134;17.058;2023-01-08T03:06:21;65.83;;;46.37;;
2610;SDS011;5612;51.134;17.058;2023-01-08T03:08:52;60.73;;;45.07;;
2610;SDS011;5612;51.134;17.058;2023-01-08T03:11:22;56.53;;;46.30;;
2610;SDS011;5612;51.134;17.058;2023-01-08T03:13:59;55.30;;;42.10;;
2610;SDS011;5612;51.134;17.058;2023-01-08T03:16:33;52.23;;;42.10;;
2610;SDS011;5612;51.134;17.058;2023-01-08T03:19:04;56.67;;;44.60;;
2610;SDS011;5612;51.134;17.058;2023-01-08T03:21:38;55.53;;;43.70;;
2610;SDS011;5612;51.134;17.058;2023-01-08T03:24:09;56.43;;;42.07;;
2610;SDS011;5612;51.134;17.058;2023-01-08T03:26:41;58.00;;;45.10;;
2610;SDS011;5612;51.134;17.058;2023-01-08T03:29:15;54.93;;;41.23;;
2610;SDS011;5612;51.134;17.058;2023-01-08T03:31:46;56.60;;;42.43;;
2610;SDS011;5612;51.134;17.058;2023-01-08T03:34:17;54.70;;;42.83;;
2610;SDS011;5612;51.134;17.058;2023-01-08T03:36:48;58.13;;;43.37;;
2610;SDS011;5612;51.134;17.058;2023-01-08T03:39:21;57.93;;;44.43;;
2610;SDS011;5612;51.134;17.058;2023-01-08T03:41:54;61.30;;;43.23;;
2610;SDS011;5612;51.134;17.058;2023-01-08T03:44:27;56.00;;;42.97;;
2610;SDS011;5612;51.134;17.058;2023-01-08T03:46:56;65.57;;;46.37;;
2610;SDS011;5612;51.134;17.058;2023-01-08T03:49:25;58.40;;;45.57;;
2610;SDS011;5612;51.134;17.058;2023-01-08T03:51:56;61.80;;;45.43;;
2610;SDS011;5612;51.134;17.058;2023-01-08T03:54:30;62.30;;;45.03;;
2610;SDS011;5612;51.134;17.058;2023-01-08T03:57:02;67.63;;;46.27;;
2610;SDS011;5612;51.134;17.058;2023-01-08T03:59:33;63.73;;;45.60;;
2610;SDS011;5612;51.134;17.058;2023-01-08T04:02:01;61.30;;;46.20;;
2610;SDS011;5612;51.134;17.058;2023-01-08T04:04:30;66.40;;;45.90;;
2610;SDS011;5612;51.134;17.058;2023-01-08T04:06:59;66.27;;;47.20;;
2610;SDS011;5612;51.134;17.058;2023-01-08T04:09:28;58.43;;;44.80;;
2610;SDS011;5612;51.134;17.058;2023-01-08T04:11:57;65.70;;;48.33;;
2610;SDS011;5612;51.134;17.058;2023-01-08T04:14:26;60.70;;;46.57;;
2610;SDS011;5612;51.134;17.058;2023-01-08T04:16:56;60.40;;;45.70;;
2610;SDS011;5612;51.134;17.058;2023-01-08T04:19:25;56.70;;;44.03;;
2610;SDS011;5612;51.134;17.058;2023-01-08T04:21:54;67.20;;;46.97;;
2610;SDS011;5612;51.134;17.058;2023-01-08T04:24:22;66.03;;;45.20;;
2610;SDS011;5612;51.134;17.058;2023-01-08T04:26:51;61.30;;;47.77;;
2610;SDS011;5612;51.134;17.058;2023-01-08T04:29:20;56.57;;;44.70;;
2610;SDS011;5612;51.134;17.058;2023-01-08T04:31:49;64.70;;;50.03;;
2610;SDS011;5612;51.134;17.058;2023-01-08T04:34:19;63.00;;;49.80;;
2610;SDS011;5612;51.134;17.058;2023-01-08T04:36:48;67.50;;;48.63;;
2610;SDS011;5612;51.134;17.058;2023-01-08T04:39:16;64.73;;;48.00;;
2610;SDS011;5612;51.134;17.058;2023-01-08T04:41:45;64.40;;;47.80;;
2610;SDS011;5612;51.134;17.058;2023-01-08T04:44:14;66.47;;;50.33;;
2610;SDS011;5612;51.134;17.058;2023-01-08T04:46:43;72.30;;;50.23;;
2610;SDS011;5612;51.134;17.058;2023-01-08T04:49:11;66.47;;;50.80;;
2610;SDS011;5612;51.134;17.058;2023-01-08T04:51:42;68.60;;;49.00;;
2610;SDS011;5612;51.134;17.058;2023-01-08T04:54:10;64.67;;;48.97;;
2610;SDS011;5612;51.134;17.058;2023-01-08T04:56:39;63.33;;;47.20;;
2610;SDS011;5612;51.134;17.058;2023-01-08T04:59:08;66.10;;;49.80;;
2610;SDS011;5612;51.134;17.058;2023-01-08T05:01:37;71.37;;;49.73;;
2610;SDS011;5612;51.134;17.058;2023-01-08T05:04:06;74.60;;;54.10;;
2610;SDS011;5612;51.134;17.058;2023-01-08T05:06:34;69.07;;;51.70;;
2610;SDS011;5612;51.134;17.058;2023-01-08T05:09:05;67.17;;;51.90;;
2610;SDS011;5612;51.134;17.058;2023-01-08T05:11:33;65.27;;;51.20;;
2610;SDS011;5612;51.134;17.058;2023-01-08T05:14:03;69.30;;;49.30;;
2610;SDS011;5612;51.134;17.058;2023-01-08T05:16:31;63.03;;;49.13;;
2610;SDS011;5612;51.134;17.058;2023-01-08T05:19:00;66.93;;;48.50;;
2610;SDS011;5612;51.134;17.058;2023-01-08T05:21:29;63.27;;;48.20;;
2610;SDS011;5612;51.134;17.058;2023-01-08T05:23:58;64.07;;;46.97;;
2610;SDS011;5612;51.134;17.058;2023-01-08T05:26:28;54.50;;;44.30;;
2610;SDS011;5612;51.134;17.058;2023-01-08T05:28:56;59.77;;;47.20;;
2610;SDS011;5612;51.134;17.058;2023-01-08T05:31:25;56.90;;;44.67;;
2610;SDS011;5612;51.134;17.058;2023-01-08T05:33:56;64.13;;;46.53;;
2610;SDS011;5612;51.134;17.058;2023-01-08T05:36:26;58.27;;;45.03;;
2610;SDS011;5612;51.134;17.058;2023-01-08T05:38:56;51.33;;;44.10;;
2610;SDS011;5612;51.134;17.058;2023-01-08T05:41:25;56.30;;;42.60;;
2610;SDS011;5612;51.134;17.058;2023-01-08T05:43:55;54.10;;;42.70;;
2610;SDS011;5612;51.134;17.058;2023-01-08T05:46:24;62.57;;;44.87;;
2610;SDS011;5612;51.134;17.058;2023-01-08T05:48:52;54.37;;;43.37;;
2610;SDS011;5612;51.134;17.058;2023-01-08T05:51:21;54.13;;;42.13;;
2610;SDS011;5612;51.134;17.058;2023-01-08T05:53:50;56.97;;;43.97;;
2610;SDS011;5612;51.134;17.058;2023-01-08T05:56:19;57.83;;;42.17;;
2610;SDS011;5612;51.134;17.058;2023-01-08T05:58:48;52.87;;;43.10;;
2610;SDS011;5612;51.134;17.058;2023-01-08T06:01:18;53.90;;;42.83;;
2610;SDS011;5612;51.134;17.058;2023-01-08T06:03:47;51.77;;;42.67;;
2610;SDS011;5612;51.134;17.058;2023-01-08T06:06:16;54.97;;;44.50;;
2610;SDS011;5612;51.134;17.058;2023-01-08T06:08:44;61.80;;;45.27;;
2610;SDS011;5612;51.134;17.058;2023-01-08T06:11:13;59.43;;;45.23;;
2610;SDS011;5612;51.134;17.058;2023-01-08T06:13:42;59.53;;;45.30;;
2610;SDS011;5612;51.134;17.058;2023-01-08T06:16:11;54.57;;;45.57;;
2610;SDS011;5612;51.134;17.058;2023-01-08T06:18:42;52.90;;;45.53;;
2610;SDS011;5612;51.134;17.058;2023-01-08T06:21:11;53.83;;;42.17;;
2610;SDS011;5612;51.134;17.058;2023-01-08T06:23:40;52.10;;;45.07;;
2610;SDS011;5612;51.134;17.058;2023-01-08T06:26:08;56.33;;;44.73;;
2610;SDS011;5612;51.134;17.058;2023-01-08T06:28:37;61.70;;;46.40;;
2610;SDS011;5612;51.134;17.058;2023-01-08T06:31:06;55.50;;;44.60;;
2610;SDS011;5612;51.134;17.058;2023-01-08T06:33:35;56.03;;;44.23;;
2610;SDS011;5612;51.134;17.058;2023-01-08T06:36:05;54.87;;;42.07;;
2610;SDS011;5612;51.134;17.058;2023-01-08T06:38:34;67.97;;;45.80;;
2610;SDS011;5612;51.134;17.058;2023-01-08T06:41:04;59.20;;;44.63;;
2610;SDS011;5612;51.134;17.058;2023-01-08T06:43:34;57.47;;;42.97;;
2610;SDS011;5612;51.134;17.058;2023-01-08T06:46:03;54.83;;;42.43;;
2610;SDS011;5612;51.134;17.058;2023-01-08T06:48:32;60.53;;;42.70;;
2610;SDS011;5612;51.134;17.058;2023-01-08T06:51:01;61.37;;;48.17;;
2610;SDS011;5612;51.134;17.058;2023-01-08T06:53:33;58.70;;;42.47;;
2610;SDS011;5612;51.134;17.058;2023-01-08T06:56:02;56.13;;;44.67;;
2610;SDS011;5612;51.134;17.058;2023-01-08T06:58:33;65.30;;;46.20;;
2610;SDS011;5612;51.134;17.058;2023-01-08T07:01:02;53.53;;;42.73;;
2610;SDS011;5612;51.134;17.058;2023-01-08T07:03:30;55.37;;;44.23;;
2610;SDS011;5612;51.134;17.058;2023-01-08T07:06:01;56.70;;;43.20;;
2610;SDS011;5612;51.134;17.058;2023-01-08T07:08:30;49.10;;;38.27;;
2610;SDS011;5612;51.134;17.058;2023-01-08T07:11:01;54.07;;;39.63;;
2610;SDS011;5612;51.134;17.058;2023-01-08T07:13:31;49.47;;;38.70;;
2610;SDS011;5612;51.134;17.058;2023-01-08T07:16:03;56.63;;;39.97;;
2610;SDS011;5612;51.134;17.058;2023-01-08T07:18:33;56.33;;;42.17;;
2610;SDS011;5612;51.134;17.058;2023-01-08T07:21:03;48.73;;;39.23;;
2610;SDS011;5612;51.134;17.058;2023-01-08T07:23:32;55.97;;;41.30;;
2610;SDS011;5612;51.134;17.058;2023-01-08T07:26:03;54.20;;;41.30;;
2610;SDS011;5612;51.134;17.058;2023-01-08T07:28:33;53.70;;;40.33;;
2610;SDS011;5612;51.134;17.058;2023-01-08T07:31:03;50.37;;;42.00;;
2610;SDS011;5612;51.134;17.058;2023-01-08T07:33:32;61.10;;;46.57;;
2610;SDS011;5612;51.134;17.058;2023-01-08T07:36:01;54.00;;;40.90;;
2610;SDS011;5612;51.134;17.058;2023-01-08T07:38:30;56.73;;;43.13;;
2610;SDS011;5612;51.134;17.058;2023-01-08T07:40:58;54.07;;;42.70;;
2610;SDS011;5612;51.134;17.058;2023-01-08T07:43:29;52.77;;;41.67;;
2610;SDS011;5612;51.134;17.058;2023-01-08T07:46:00;57.10;;;42.07;;
2610;SDS011;5612;51.134;17.058;2023-01-08T07:48:29;52.07;;;41.37;;
2610;SDS011;5612;51.134;17.058;2023-01-08T07:51:01;58.37;;;42.40;;
2610;SDS011;5612;51.134;17.058;2023-01-08T07:53:30;52.80;;;42.43;;
2610;SDS011;5612;51.134;17.058;2023-01-08T07:55:59;52.90;;;42.90;;
2610;SDS011;5612;51.134;17.058;2023-01-08T07:58:29;55.40;;;41.67;;
2610;SDS011;5612;51.134;17.058;2023-01-08T08:00:58;52.40;;;40.73;;
2610;SDS011;5612;51.134;17.058;2023-01-08T08:03:28;51.07;;;40.77;;
2610;SDS011;5612;51.134;17.058;2023-01-08T08:05:58;51.70;;;38.90;;
2610;SDS011;5612;51.134;17.058;2023-01-08T08:08:27;47.17;;;38.00;;
2610;SDS011;5612;51.134;17.058;2023-01-08T08:10:56;46.77;;;38.47;;
2610;SDS011;5612;51.134;17.058;2023-01-08T08:13:25;49.60;;;41.10;;
2610;SDS011;5612;51.134;17.058;2023-01-08T08:15:59;53.53;;;41.33;;
2610;SDS011;5612;51.134;17.058;2023-01-08T08:18:29;54.53;;;42.17;;
2610;SDS011;5612;51.134;17.058;2023-01-08T08:20:58;51.53;;;42.57;;
2610;SDS011;5612;51.134;17.058;2023-01-08T08:23:26;50.47;;;43.00;;
2610;SDS011;5612;51.134;17.058;2023-01-08T08:25:55;49.40;;;41.43;;
2610;SDS011;5612;51.134;17.058;2023-01-08T08:28:24;49.40;;;42.60;;
2610;SDS011;5612;51.134;17.058;2023-01-08T08:30:53;51.93;;;41.57;;
2610;SDS011;5612;51.134;17.058;2023-01-08T08:33:23;54.10;;;44.17;;
2610;SDS011;5612;51.134;17.058;2023-01-08T08:35:52;47.90;;;40.10;;
2610;SDS011;5612;51.134;17.058;2023-01-08T08:38:21;44.03;;;38.00;;
2610;SDS011;5612;51.134;17.058;2023-01-08T08:40:50;45.20;;;38.60;;
2610;SDS011;5612;51.134;17.058;2023-01-08T08:43:19;43.63;;;38.77;;
2610;SDS011;5612;51.134;17.058;2023-01-08T08:45:48;44.70;;;36.17;;
2610;SDS011;5612;51.134;17.058;2023-01-08T08:48:17;39.30;;;35.30;;
2610;SDS011;5612;51.134;17.058;2023-01-08T08:50:47;38.27;;;33.87;;
2610;SDS011;5612;51.134;17.058;2023-01-08T08:53:16;34.23;;;30.30;;
2610;SDS011;5612;51.134;17.058;2023-01-08T08:55:45;35.87;;;32.07;;
2610;SDS011;5612;51.134;17.058;2023-01-08T08:58:13;34.00;;;30.47;;
2610;SDS011;5612;51.134;17.058;2023-01-08T09:00:42;30.40;;;27.30;;
2610;SDS011;5612;51.134;17.058;2023-01-08T09:03:12;28.77;;;26.07;;
2610;SDS011;5612;51.134;17.058;2023-01-08T09:05:41;28.27;;;25.43;;
2610;SDS011;5612;51.134;17.058;2023-01-08T09:08:12;26.90;;;24.40;;
2610;SDS011;5612;51.134;17.058;2023-01-08T09:10:41;27.53;;;24.83;;
2610;SDS011;5612;51.134;17.058;2023-01-08T09:13:10;26.60;;;23.93;;
2610;SDS011;5612;51.134;17.058;2023-01-08T09:15:39;27.17;;;24.27;;
2610;SDS011;5612;51.134;17.058;2023-01-08T09:18:08;28.90;;;25.47;;
2610;SDS011;5612;51.134;17.058;2023-01-08T09:20:37;27.50;;;24.57;;
2610;SDS011;5612;51.134;17.058;2023-01-08T09:23:06;26.07;;;23.13;;
2610;SDS011;5612;51.134;17.058;2023-01-08T09:25:36;22.50;;;20.33;;
2610;SDS011;5612;51.134;17.058;2023-01-08T09:28:05;23.30;;;21.10;;
2610;SDS011;5612;51.134;17.058;2023-01-08T09:30:35;21.60;;;19.60;;
2610;SDS011;5612;51.134;17.058;2023-01-08T09:33:04;21.73;;;19.50;;
2610;SDS011;5612;51.134;17.058;2023-01-08T09:35:34;20.47;;;18.37;;
2610;SDS011;5612;51.134;17.058;2023-01-08T09:38:03;21.07;;;19.07;;
2610;SDS011;5612;51.134;17.058;2023-01-08T09:40:33;21.90;;;19.60;;
2610;SDS011;5612;51.134;17.058;2023-01-08T09:43:06;19.00;;;17.40;;
2610;SDS011;5612;51.134;17.058;2023-01-08T09:45:40;20.60;;;18.70;;
2610;SDS011;5612;51.134;17.058;2023-01-08T09:48:13;20.27;;;18.37;;
2610;SDS011;5612;51.134;17.058;2023-01-08T09:50:44;20.33;;;18.43;;
2610;SDS011;5612;51.134;17.058;2023-01-08T09:53:15;20.33;;;18.50;;
2610;SDS011;5612;51.134;17.058;2023-01-08T09:55:48;18.60;;;17.10;;
2610;SDS011;5612;51.134;17.058;2023-01-08T09:58:37;18.50;;;16.90;;
2610;SDS011;5612;51.134;17.058;2023-01-08T10:01:08;19.87;;;18.17;;
2610;SDS011;5612;51.134;17.058;2023-01-08T10:03:41;19.07;;;17.57;;
2610;SDS011;5612;51.134;17.058;2023-01-08T10:06:14;19.80;;;18.00;;
2610;SDS011;5612;51.134;17.058;2023-01-08T10:08:43;18.47;;;16.87;;
2610;SDS011;5612;51.134;17.058;2023-01-08T10:11:14;18.10;;;16.50;;
2610;SDS011;5612;51.134;17.058;2023-01-08T10:13:45;17.70;;;16.30;;
2610;SDS011;5612;51.134;17.058;2023-01-08T10:16:21;16.93;;;15.43;;
2610;SDS011;5612;51.134;17.058;2023-01-08T10:18:56;16.53;;;14.93;;
2610;SDS011;5612;51.134;17.058;2023-01-08T10:21:27;16.70;;;15.20;;
2610;SDS011;5612;51.134;17.058;2023-01-08T10:23:58;16.77;;;15.17;;
2610;SDS011;5612;51.134;17.058;2023-01-08T10:26:29;16.27;;;14.97;;
2610;SDS011;5612;51.134;17.058;2023-01-08T10:29:05;14.30;;;12.80;;
2610;SDS011;5612;51.134;17.058;2023-01-08T10:31:46;14.97;;;13.60;;
2610;SDS011;5612;51.134;17.058;2023-01-08T10:34:27;14.47;;;13.13;;
2610;SDS011;5612;51.134;17.058;2023-01-08T10:36:59;12.80;;;11.70;;
2610;SDS011;5612;51.134;17.058;2023-01-08T10:39:42;13.60;;;12.30;;
2610;SDS011;5612;51.134;17.058;2023-01-08T10:42:16;12.77;;;11.57;;
2610;SDS011;5612;51.134;17.058;2023-01-08T10:44:51;13.30;;;12.17;;
2610;SDS011;5612;51.134;17.058;2023-01-08T10:47:26;11.47;;;10.40;;
2610;SDS011;5612;51.134;17.058;2023-01-08T10:49:58;13.23;;;11.90;;
2610;SDS011;5612;51.134;17.058;2023-01-08T10:52:30;12.87;;;11.67;;
2610;SDS011;5612;51.134;17.058;2023-01-08T10:55:12;12.40;;;11.23;;
2610;SDS011;5612;51.134;17.058;2023-01-08T10:57:53;10.83;;;9.93;;
2610;SDS011;5612;51.134;17.058;2023-01-08T11:00:24;11.03;;;9.93;;
2610;SDS011;5612;51.134;17.058;2023-01-08T11:02:56;12.30;;;11.20;;
2610;SDS011;5612;51.134;17.058;2023-01-08T11:05:31;12.07;;;10.97;;
2610;SDS011;5612;51.134;17.058;2023-01-08T11:08:03;12.10;;;11.00;;
2610;SDS011;5612;51.134;17.058;2023-01-08T11:10:35;13.37;;;12.07;;
2610;SDS011;5612;51.134;17.058;2023-01-08T11:13:06;10.50;;;9.50;;
2610;SDS011;5612;51.134;17.058;2023-01-08T11:15:44;12.67;;;11.57;;
2610;SDS011;5612;51.134;17.058;2023-01-08T11:18:15;11.53;;;10.43;;
2610;SDS011;5612;51.134;17.058;2023-01-08T11:20:47;11.87;;;10.77;;
2610;SDS011;5612;51.134;17.058;2023-01-08T11:23:18;11.20;;;10.17;;
2610;SDS011;5612;51.134;17.058;2023-01-08T11:25:53;11.80;;;10.60;;
2610;SDS011;5612;51.134;17.058;2023-01-08T11:28:32;11.67;;;10.60;;
2610;SDS011;5612;51.134;17.058;2023-01-08T11:31:12;11.77;;;10.67;;
2610;SDS011;5612;51.134;17.058;2023-01-08T11:33:44;12.67;;;11.47;;
2610;SDS011;5612;51.134;17.058;2023-01-08T11:36:21;11.83;;;10.83;;
2610;SDS011;5612;51.134;17.058;2023-01-08T11:38:55;12.10;;;11.00;;
2610;SDS011;5612;51.134;17.058;2023-01-08T11:41:30;11.30;;;10.20;;
2610;SDS011;5612;51.134;17.058;2023-01-08T11:44:23;11.77;;;10.60;;
2610;SDS011;5612;51.134;17.058;2023-01-08T11:47:07;10.90;;;9.90;;
2610;SDS011;5612;51.134;17.058;2023-01-08T11:52:43;10.77;;;9.80;;
2610;SDS011;5612;51.134;17.058;2023-01-08T11:55:32;12.33;;;11.23;;
2610;SDS011;5612;51.134;17.058;2023-01-08T11:58:17;11.77;;;10.53;;
2610;SDS011;5612;51.134;17.058;2023-01-08T12:00:57;11.50;;;10.27;;
2610;SDS011;5612;51.134;17.058;2023-01-08T12:03:39;11.77;;;10.60;;
2610;SDS011;5612;51.134;17.058;2023-01-08T12:06:15;11.90;;;10.77;;
2610;SDS011;5612;51.134;17.058;2023-01-08T12:09:01;13.13;;;11.40;;
2610;SDS011;5612;51.134;17.058;2023-01-08T12:11:38;10.57;;;9.67;;
2610;SDS011;5612;51.134;17.058;2023-01-08T12:14:18;13.70;;;11.53;;
2610;SDS011;5612;51.134;17.058;2023-01-08T12:17:06;11.33;;;10.23;;
2610;SDS011;5612;51.134;17.058;2023-01-08T12:20:00;14.00;;;12.50;;
2610;SDS011;5612;51.134;17.058;2023-01-08T12:22:43;14.13;;;11.33;;
2610;SDS011;5612;51.134;17.058;2023-01-08T12:25:20;12.07;;;11.07;;
2610;SDS011;5612;51.134;17.058;2023-01-08T12:28:08;11.27;;;10.17;;
2610;SDS011;5612;51.134;17.058;2023-01-08T12:30:57;11.53;;;10.33;;
2610;SDS011;5612;51.134;17.058;2023-01-08T12:33:47;11.97;;;10.80;;
2610;SDS011;5612;51.134;17.058;2023-01-08T12:36:22;11.37;;;10.30;;
2610;SDS011;5612;51.134;17.058;2023-01-08T12:38:57;12.50;;;11.40;;
2610;SDS011;5612;51.134;17.058;2023-01-08T12:41:30;11.60;;;10.60;;
2610;SDS011;5612;51.134;17.058;2023-01-08T12:44:03;13.60;;;12.40;;
2610;SDS011;5612;51.134;17.058;2023-01-08T12:46:36;10.40;;;9.40;;
2610;SDS011;5612;51.134;17.058;2023-01-08T12:49:09;11.50;;;10.40;;
2610;SDS011;5612;51.134;17.058;2023-01-08T12:51:45;13.90;;;12.60;;
2610;SDS011;5612;51.134;17.058;2023-01-08T12:54:22;13.77;;;11.30;;
2610;SDS011;5612;51.134;17.058;2023-01-08T12:56:58;13.43;;;12.10;;
2610;SDS011;5612;51.134;17.058;2023-01-08T12:59:37;13.10;;;11.90;;
2610;SDS011;5612;51.134;17.058;2023-01-08T13:02:14;14.30;;;12.73;;
2610;SDS011;5612;51.134;17.058;2023-01-08T13:04:54;13.43;;;12.20;;
2610;SDS011;5612;51.134;17.058;2023-01-08T13:07:25;14.10;;;12.70;;
2610;SDS011;5612;51.134;17.058;2023-01-08T13:10:00;14.67;;;12.87;;
2610;SDS011;5612;51.134;17.058;2023-01-08T13:12:32;13.40;;;12.10;;
2610;SDS011;5612;51.134;17.058;2023-01-08T13:15:03;12.67;;;11.37;;
2610;SDS011;5612;51.134;17.058;2023-01-08T13:17:34;16.23;;;13.80;;
2610;SDS011;5612;51.134;17.058;2023-01-08T13:20:07;15.23;;;13.63;;
2610;SDS011;5612;51.134;17.058;2023-01-08T13:22:49;15.50;;;13.90;;
2610;SDS011;5612;51.134;17.058;2023-01-08T13:25:25;14.60;;;13.00;;
2610;SDS011;5612;51.134;17.058;2023-01-08T13:28:00;14.90;;;13.37;;
2610;SDS011;5612;51.134;17.058;2023-01-08T13:30:41;16.93;;;15.13;;
2610;SDS011;5612;51.134;17.058;2023-01-08T13:33:26;15.30;;;13.70;;
2610;SDS011;5612;51.134;17.058;2023-01-08T13:36:17;16.97;;;12.60;;
2610;SDS011;5612;51.134;17.058;2023-01-08T13:38:58;14.53;;;13.03;;
2610;SDS011;5612;51.134;17.058;2023-01-08T13:41:33;14.77;;;12.30;;
2610;SDS011;5612;51.134;17.058;2023-01-08T13:44:11;15.27;;;13.30;;
2610;SDS011;5612;51.134;17.058;2023-01-08T13:46:52;16.47;;;14.70;;
2610;SDS011;5612;51.134;17.058;2023-01-08T13:49:24;14.57;;;13.07;;
2610;SDS011;5612;51.134;17.058;2023-01-08T13:51:57;22.40;;;13.60;;
2610;SDS011;5612;51.134;17.058;2023-01-08T13:54:31;15.67;;;14.07;;
2610;SDS011;5612;51.134;17.058;2023-01-08T13:57:04;18.57;;;15.00;;
2610;SDS011;5612;51.134;17.058;2023-01-08T13:59:40;15.93;;;14.40;;
2610;SDS011;5612;51.134;17.058;2023-01-08T14:02:25;16.07;;;14.17;;
2610;SDS011;5612;51.134;17.058;2023-01-08T14:04:57;17.10;;;14.60;;
2610;SDS011;5612;51.134;17.058;2023-01-08T14:07:28;14.90;;;13.27;;
2610;SDS011;5612;51.134;17.058;2023-01-08T14:10:05;15.47;;;13.87;;
2610;SDS011;5612;51.134;17.058;2023-01-08T14:12:36;14.80;;;13.20;;
2610;SDS011;5612;51.134;17.058;2023-01-08T14:15:06;15.80;;;14.20;;
2610;SDS011;5612;51.134;17.058;2023-01-08T14:17:37;16.13;;;14.40;;
2610;SDS011;5612;51.134;17.058;2023-01-08T14:20:08;16.60;;;14.70;;
2610;SDS011;5612;51.134;17.058;2023-01-08T14:22:41;14.80;;;13.27;;
2610;SDS011;5612;51.134;17.058;2023-01-08T14:25:12;15.43;;;13.43;;
2610;SDS011;5612;51.134;17.058;2023-01-08T14:27:55;15.17;;;13.73;;
2610;SDS011;5612;51.134;17.058;2023-01-08T14:30:26;16.40;;;14.13;;
2610;SDS011;5612;51.134;17.058;2023-01-08T14:32:56;15.90;;;14.40;;
2610;SDS011;5612;51.134;17.058;2023-01-08T14:35:31;16.70;;;14.27;;
2610;SDS011;5612;51.134;17.058;2023-01-08T14:38:03;17.20;;;14.67;;
2610;SDS011;5612;51.134;17.058;2023-01-08T14:40:34;16.67;;;14.87;;
2610;SDS011;5612;51.134;17.058;2023-01-08T14:43:07;16.77;;;15.00;;
2610;SDS011;5612;51.134;17.058;2023-01-08T14:45:38;17.10;;;14.73;;
2610;SDS011;5612;51.134;17.058;2023-01-08T14:48:15;15.97;;;14.27;;
2610;SDS011;5612;51.134;17.058;2023-01-08T14:50:58;18.20;;;16.20;;
2610;SDS011;5612;51.134;17.058;2023-01-08T14:53:31;16.33;;;14.23;;
2610;SDS011;5612;51.134;17.058;2023-01-08T14:56:03;21.03;;;16.70;;
2610;SDS011;5612;51.134;17.058;2023-01-08T14:58:34;19.53;;;16.60;;
2610;SDS011;5612;51.134;17.058;2023-01-08T15:01:05;20.00;;;17.87;;
2610;SDS011;5612;51.134;17.058;2023-01-08T15:03:41;19.80;;;17.80;;
2610;SDS011;5612;51.134;17.058;2023-01-08T15:06:21;16.67;;;14.87;;
2610;SDS011;5612;51.134;17.058;2023-01-08T15:08:53;16.77;;;15.00;;